Davit Kvaratskhelia

Jefe de ojeadores - Saburtalo
20 Nov 2027
Sábado
Continuar

Personalidad

Adaptabilidad (19) Ambición (9) Controversia (6) Lealtad (18) Presión (2) Profesionalismo (11) Deportividad (12) Temperamento (8)

Perfil

Estilo de dirección Democrático
Licencia Nacional A
Determinación 5
Gestión de personas 3
Motivación 10
Disciplina 7
Satisfacción laboral
100%
Fatiga
0%
Cargo Jefe de ojeadores
Salario 19.4K p/s
Contrato 14.03.2028

Rendimiento

Comportamiento Bueno
Efectividad del entrenamiento
36%
Desarrollo de jugadores
20%
Prevención de lesiones
45%
Implementación táctica
50%

Eventos recientes

Asistió a una reunión de captación 7d atrás
Recomendó un objetivo de fichaje 7d atrás
Asistió a una reunión de captación 14d atrás
Recomendó un objetivo de fichaje 14d atrás
Asistió a una reunión de captación 21d atrás
Recomendó un objetivo de fichaje 21d atrás
Asistió a una reunión de captación 28d atrás
Recomendó un objetivo de fichaje 28d atrás

Actualmente siguiendo

124
Jugador Club Estado Habilidad Confianza Observado Última observación Último voto
Brendan Wiredu Plymouth Argyle Activo 124 / 109 40% 1 06.07.2027 -
Alejandro Cantero Huesca Activo 107 / 125 40% 1 06.07.2027 -
James Tilley Wycombe Wanderers Activo 109 / 90 40% 1 23.06.2027 -
Kamil Conteh Bristol Rovers Activo 110 / 100 40% 1 23.06.2027 -
Brayan Gil Baltika Activo 119 / 120 40% 8 01.06.2027 -
Isaac Tshibangu Emirates Club Activo 112 / 121 40% 4 31.05.2027 -
Vyacheslav Grulev Nizhniy Novgorod Activo 113 / 115 40% 9 29.05.2027 -
Tenton Yenne Baltika Activo 111 / 110 40% 8 29.05.2027 -
Shota Shekiladze Dila Activo 122 / 118 40% 9 27.05.2027 -
Luka Reischl ADO Den Haag Activo 114 / 102 40% 3 27.05.2027 -
Job Ochieng Real Sociedad Activo 110 / 119 40% 9 26.05.2027 -
Kamran Aliev SKA Khabarovsk Activo 100 / 107 40% 6 26.05.2027 -
Ichem Ferrah Pisa Activo 114 / 134 40% 1 23.05.2027 -
Thalys Almería Activo 115 / 132 40% 3 22.05.2027 -
David Nieland Chernomorets Activo 100 / 101 40% 7 17.05.2027 -
Alexandr Saplinov Volga Activo 104 / 100 40% 5 15.05.2027 -
Vladislav Sarveli Nizhniy Novgorod Activo 107 / 100 40% 8 15.05.2027 -
Luca Franco Arsenal Activo 108 / 101 40% 1 14.05.2027 -
Danila Shilov Dinamo Stavropol Activo 99 / 94 40% 7 11.05.2027 -
Sunday Megwo Abia Warriors Activo 109 / 103 40% 1 11.05.2027 -
Jonathan Okoronkwo Torpedo Moscow Activo 108 / 100 40% 6 08.05.2027 -
Ekain Orobengoa Real Sociedad Activo 109 / 110 40% 8 06.05.2027 -
Naoufal Bannis Vitesse Activo 111 / 110 40% 3 05.05.2027 -
Edarlyn Reyes Arsenal Tula Activo 111 / 116 40% 9 01.05.2027 -
Dilan Ortíz Ufa Activo 99 / 101 40% 13 01.05.2027 -
Alessandro Spavone Guidonia Montecelio Activo 81 / 87 40% 1 26.04.2027 -
Kane Drummond Oldham Athletic Activo 85 / 105 40% 3 25.04.2027 -
Vladimir Khubulov Dinamo Makhachkala Activo 107 / 100 40% 5 12.04.2027 -
Bahlul Mammadov Inter Activo 116 / 127 40% 7 07.04.2027 -
Ilja Safronov Rotor Activo 103 / 102 40% 9 07.04.2027 -
Enzo López Cosenza Activo 115 / 105 40% 1 01.04.2027 -
Luka Chaganava Guria Activo 65 / 68 30% 1 / 1m 31.03.2027 -
Temur Arveladze Guria Activo 53 / 58 30% 1 / 1m 31.03.2027 -
Gamid Agalarov Dinamo Makhachkala Activo 104 / 115 40% 1 31.03.2027 -
Chinonso Offor Baltika Activo 105 / 99 40% 2 28.03.2027 -
Denzel Jubitana Neftchi Activo 127 / 115 40% 10 27.03.2027 -
Aaron Drinan Swindon Town Activo 99 / 112 40% 6 27.03.2027 -
Jakub Bednarczyk Gornik Leczna Activo 109 / 117 40% 1 20.03.2027 -
Razhab Magomedov Dinamo Makhachkala Activo 105 / 103 40% 3 19.03.2027 -
Eren Aydın Zira Activo 111 / 116 40% 2 04.03.2027 -
Ľubomír Tupta Neftchi Activo 108 / 122 40% 5 03.03.2027 -
Vladislav Yakovlev Volga Activo 90 / 81 40% 1 24.02.2027 -
Algassime Bah Dinamo Tbilisi Activo 104 / 90 40% 3 14.02.2027 -
Javohir Esonqulov Merani Activo 104 / 83 40% 5 10.02.2027 -
Jalen Blesa Rio Ave Activo 113 / 124 40% 2 06.02.2027 -
Slobodan Tedić Akron Activo 100 / 117 40% 1 05.02.2027 -
Julen Cordero Samtredia Perdido 92 / 99 40% 3 04.02.2027 -
Jan Fortelný Teplice Activo 118 / 113 40% 1 14.01.2027 -
Giorgi Papunashvili Zira Activo 114 / 98 40% 1 14.01.2027 -
Ákos Zuigeber Honved Activo 94 / 93 40% 4 28.12.2026 -
Xavier Biscayzacú Sporting CP Activo 135 / 145 40% 1 28.12.2026 -
Manu Nieto Andorra Activo 121 / 117 40% 3 25.12.2026 -
Maxim Kutovoy Salyut Activo 81 / 94 40% 1 25.12.2026 -
Gevork Sarkisyan Saturn Activo 85 / 79 40% 1 24.12.2026 -
Ciaran McGuckin Segesta Activo 80 / 82 40% 1 23.12.2026 -
Lucio Castillo Colegiales Activo 114 / 97 40% 1 23.12.2026 -
Egor Bogomolskiy Zira Activo 107 / 110 40% 2 22.12.2026 -
Yeangel Montero Naxxar Lions Activo 99 / 108 40% 5 21.12.2026 -
Miullen Hibernians Activo 79 / 76 40% 1 21.12.2026 -
Ruslan Gogniev Dinamo Stavropol Activo 84 / 86 40% 1 15.12.2026 -
Jere Vrcić Birkirkara Activo 95 / 98 40% 4 14.12.2026 -
Nikita Simdyankin KDV Tomsk Activo 84 / 88 40% 1 14.12.2026 -
Kenan Dervišagić Floriana Activo 96 / 80 40% 3 13.12.2026 -
Alexandr Yushin Torpedo Moscow Activo 111 / 115 40% 1 13.12.2026 -
Dani Díaz Real Sociedad Activo 119 / 115 40% 1 13.12.2026 -
Zurab Museliani Dila Activo 89 / 81 40% 2 08.12.2026 -
Jaba Jighauri Qizilqum Activo 101 / 98 40% 2 07.12.2026 -
Kléri Serber Hamrun Spartans Activo 106 / 84 40% 1 07.12.2026 -
Saba Lobjanidze Tskhinvali Activo 95 / 79 40% 1 07.12.2026 -
Teddy Teuma Sliema Wanderers Activo 120 / 128 40% 2 03.12.2026 -
Ronaldo Vásquez Sumgayit Activo 119 / 109 40% 1 03.12.2026 -
Imran Oulad Omar Dinamo Batumi Activo 125 / 126 40% 2 02.12.2026 -
Issa Djibrilla Zira Activo 116 / 127 40% 1 02.12.2026 -
Bojan Radulović Huddersfield Town Activo 105 / 122 40% 3 30.11.2026 -
Max Svensson Penafiel Activo 112 / 102 40% 3 29.11.2026 -
Julien Lamy Lokomotiv Plovdiv Activo 98 / 110 40% 2 29.11.2026 -
Patrick Schmidt Tarxien Rainbows Activo 98 / 110 40% 3 25.11.2026 -
Mauro Rodrigues Botev Plovdiv Activo 107 / 117 40% 2 23.11.2026 -
Elliot Bonds Fleetwood Town Activo 100 / 85 40% 1 23.11.2026 -
Louis Appéré Cambridge United Activo 95 / 106 40% 2 21.11.2026 -
Aleksandre Andronikashvili Andijon Activo 114 / 109 40% 3 21.11.2026 -
Marvin Kaleta Rotherham United Activo 101 / 122 40% 1 21.11.2026 -
Sam Nombe Milton Keynes Dons Activo 99 / 94 40% 7 19.11.2026 -
Diamanka Senghor Mosta Activo 95 / 86 40% 1 15.11.2026 -
Lewis McCann Fleetwood Town Activo 94 / 107 40% 2 13.11.2026 -
Martins Júnior Zira Activo 112 / 121 40% 2 09.11.2026 -
Pedro Bicalho Qarabag Activo 123 / 138 40% 2 09.11.2026 -
Damián Puebla Orenburg Activo 130 / 125 40% 1 09.11.2026 -
Nodar Kavtaradze Merani Activo 99 / 109 40% 2 05.11.2026 -
Rhian Brewster Derby County Activo 108 / 113 40% 2 03.11.2026 -
Matty Stevens AFC Wimbledon Activo 103 / 121 40% 3 02.11.2026 -
Dávid Zimonyi Fehervar Activo 103 / 96 40% 2 31.10.2026 -
Dmitry Lesnikov Volgar Activo 93 / 80 40% 1 31.10.2026 -
Mariano Bracamonte Deportivo Riestra Activo 117 / 114 40% 1 25.10.2026 -
Sebastian Mailat Botosani Activo 125 / 118 40% 1 24.10.2026 -
Giorgi Mchedlishvili Samtredia Activo 98 / 105 40% 1 24.10.2026 -
Matheus Alves Zenit Activo 121 / 127 40% 1 23.10.2026 -
Vito Sanna Tskhinvali Activo 112 / 111 40% 1 21.10.2026 -
Marcus Browne AFC Wimbledon Activo 92 / 100 40% 2 15.10.2026 -
Marcos Camarda Santiago Wanderers Activo 100 / 94 40% 3 14.10.2026 -
Lyes Houri Dinamo Tbilisi Activo 105 / 120 40% 1 07.10.2026 -
Paul Glatzel Swindon Town Activo 83 / 115 40% 1 06.10.2026 -
Oleksiy Shchebetun Qizilqum Activo 100 / 91 40% 1 06.10.2026 -
Yegor Kortsov Dinamo Brest Activo 116 / 119 40% 2 04.10.2026 -
Juan Cruz Zurbriggen San Telmo Activo 100 / 107 40% 2 04.10.2026 -
Joel Kojo Navbahor Activo 116 / 120 40% 1 02.10.2026 -
Lee Bonis Chesterfield Activo 103 / 93 40% 1 02.10.2026 -
Ramiro Ruiz Rodríguez Atlético Tucumán Activo 128 / 125 40% 2 25.09.2026 -
Husain Norchayev Navbahor Activo 110 / 113 40% 1 21.09.2026 -
Kauê Canela Fortaleza Activo 96 / 105 40% 1 19.09.2026 -
Franklin Sasere Birkirkara Activo 82 / 75 40% 1 17.09.2026 -
Steven Alfred Torpedo-BelAZ Activo 93 / 89 40% 1 17.09.2026 -
Mariano Peralta Bauer Defensa y Justicia Activo 107 / 109 40% 1 16.09.2026 -
Evgeniy Malashevich Dinamo Minsk Activo 96 / 100 40% 1 16.09.2026 -
Sardor Abdunabiyev Bunyodkor Activo 105 / 87 40% 1 15.09.2026 -
Dmitri Mandrîcenco Dinamo Batumi Perdido 84 / 103 40% 2 25.08.2026 -
Rafael Broetto Sapovnela Activo 100 / 100 30% 1 / 1m 12.08.2026 -
Giorgi Beridze Dinamo Tbilisi Activo 115 / 103 40% 1 10.08.2026 -
Luka Gagnidze Dinamo Moscow Activo 115 / 121 40% 1 10.08.2026 -
Jaba Kobiashvili Tskhinvali Activo 96 / 91 65% 1 03.08.2026 Aprobar
Bruno José Atletico Goianiense Activo 109 / 114 40% 1 03.08.2026 -
Mark Harris Oxford United Activo 102 / 110 40% 1 01.08.2026 -
Fabricio Rojas Gimnasia y Tiro Activo 111 / 99 40% 1 01.08.2026 -
Lucas Besozzi Lanús Activo 109 / 111 40% 1 01.08.2026 -